sensor_id;sensor_type;location;lat;lon;timestamp;P1;durP1;ratioP1;P2;durP2;ratioP2
25191;SDS011;13143;50.924;5.320;2024-01-30T00:01:49;14.80;;;8.45;;
25191;SDS011;13143;50.924;5.320;2024-01-30T00:04:15;14.65;;;9.23;;
25191;SDS011;13143;50.924;5.320;2024-01-30T00:06:42;16.65;;;8.98;;
25191;SDS011;13143;50.924;5.320;2024-01-30T00:09:08;16.30;;;9.48;;
25191;SDS011;13143;50.924;5.320;2024-01-30T00:11:35;17.83;;;9.45;;
25191;SDS011;13143;50.924;5.320;2024-01-30T00:14:01;13.55;;;8.63;;
25191;SDS011;13143;50.924;5.320;2024-01-30T00:16:28;17.60;;;9.73;;
25191;SDS011;13143;50.924;5.320;2024-01-30T00:18:54;18.80;;;8.50;;
25191;SDS011;13143;50.924;5.320;2024-01-30T00:21:20;16.67;;;9.00;;
25191;SDS011;13143;50.924;5.320;2024-01-30T00:23:46;13.57;;;8.68;;
25191;SDS011;13143;50.924;5.320;2024-01-30T00:26:12;12.35;;;8.63;;
25191;SDS011;13143;50.924;5.320;2024-01-30T00:28:40;14.25;;;8.10;;
25191;SDS011;13143;50.924;5.320;2024-01-30T00:31:06;14.45;;;8.52;;
25191;SDS011;13143;50.924;5.320;2024-01-30T00:33:32;14.35;;;8.65;;
25191;SDS011;13143;50.924;5.320;2024-01-30T00:35:58;14.82;;;8.65;;
25191;SDS011;13143;50.924;5.320;2024-01-30T00:38:24;12.80;;;7.88;;
25191;SDS011;13143;50.924;5.320;2024-01-30T00:40:49;12.43;;;7.93;;
25191;SDS011;13143;50.924;5.320;2024-01-30T00:43:15;15.05;;;7.97;;
25191;SDS011;13143;50.924;5.320;2024-01-30T00:45:43;17.85;;;9.15;;
25191;SDS011;13143;50.924;5.320;2024-01-30T00:48:09;13.52;;;8.52;;
25191;SDS011;13143;50.924;5.320;2024-01-30T00:50:34;14.05;;;8.38;;
25191;SDS011;13143;50.924;5.320;2024-01-30T00:53:00;14.23;;;8.70;;
25191;SDS011;13143;50.924;5.320;2024-01-30T00:55:26;17.05;;;8.40;;
25191;SDS011;13143;50.924;5.320;2024-01-30T00:57:52;14.77;;;8.18;;
25191;SDS011;13143;50.924;5.320;2024-01-30T01:00:18;17.85;;;9.65;;
25191;SDS011;13143;50.924;5.320;2024-01-30T01:02:45;16.27;;;8.00;;
25191;SDS011;13143;50.924;5.320;2024-01-30T01:05:11;15.35;;;8.35;;
25191;SDS011;13143;50.924;5.320;2024-01-30T01:07:37;12.63;;;8.25;;
25191;SDS011;13143;50.924;5.320;2024-01-30T01:10:05;15.48;;;8.55;;
25191;SDS011;13143;50.924;5.320;2024-01-30T01:12:31;17.40;;;8.55;;
25191;SDS011;13143;50.924;5.320;2024-01-30T01:14:57;17.50;;;9.15;;
25191;SDS011;13143;50.924;5.320;2024-01-30T01:17:22;17.27;;;8.27;;
25191;SDS011;13143;50.924;5.320;2024-01-30T01:19:48;12.48;;;8.48;;
25191;SDS011;13143;50.924;5.320;2024-01-30T01:22:15;15.55;;;8.85;;
25191;SDS011;13143;50.924;5.320;2024-01-30T01:24:43;12.93;;;7.72;;
25191;SDS011;13143;50.924;5.320;2024-01-30T01:27:09;13.70;;;7.55;;
25191;SDS011;13143;50.924;5.320;2024-01-30T01:29:35;13.55;;;8.15;;
25191;SDS011;13143;50.924;5.320;2024-01-30T01:32:01;11.48;;;8.23;;
25191;SDS011;13143;50.924;5.320;2024-01-30T01:34:27;13.73;;;8.10;;
25191;SDS011;13143;50.924;5.320;2024-01-30T01:36:52;13.18;;;7.63;;
25191;SDS011;13143;50.924;5.320;2024-01-30T01:39:20;12.38;;;7.97;;
25191;SDS011;13143;50.924;5.320;2024-01-30T01:41:48;14.35;;;7.78;;
25191;SDS011;13143;50.924;5.320;2024-01-30T01:44:14;12.93;;;8.05;;
25191;SDS011;13143;50.924;5.320;2024-01-30T01:46:40;12.80;;;7.50;;
25191;SDS011;13143;50.924;5.320;2024-01-30T01:49:06;10.07;;;7.40;;
25191;SDS011;13143;50.924;5.320;2024-01-30T01:51:33;13.30;;;7.82;;
25191;SDS011;13143;50.924;5.320;2024-01-30T01:54:03;13.48;;;7.93;;
25191;SDS011;13143;50.924;5.320;2024-01-30T01:56:33;14.65;;;7.82;;
25191;SDS011;13143;50.924;5.320;2024-01-30T01:59:00;11.55;;;7.68;;
25191;SDS011;13143;50.924;5.320;2024-01-30T02:01:32;14.35;;;7.63;;
25191;SDS011;13143;50.924;5.320;2024-01-30T02:03:58;14.85;;;8.82;;
25191;SDS011;13143;50.924;5.320;2024-01-30T02:06:24;10.57;;;7.22;;
25191;SDS011;13143;50.924;5.320;2024-01-30T02:08:51;12.73;;;7.57;;
25191;SDS011;13143;50.924;5.320;2024-01-30T02:11:16;13.43;;;7.32;;
25191;SDS011;13143;50.924;5.320;2024-01-30T02:13:43;18.20;;;8.27;;
25191;SDS011;13143;50.924;5.320;2024-01-30T02:16:09;13.05;;;7.45;;
25191;SDS011;13143;50.924;5.320;2024-01-30T02:18:35;13.43;;;7.65;;
25191;SDS011;13143;50.924;5.320;2024-01-30T02:21:06;12.73;;;7.53;;
25191;SDS011;13143;50.924;5.320;2024-01-30T02:23:32;10.13;;;7.13;;
25191;SDS011;13143;50.924;5.320;2024-01-30T02:25:59;12.93;;;7.22;;
25191;SDS011;13143;50.924;5.320;2024-01-30T02:28:25;13.77;;;7.50;;
25191;SDS011;13143;50.924;5.320;2024-01-30T02:30:52;15.07;;;6.57;;
25191;SDS011;13143;50.924;5.320;2024-01-30T02:33:18;11.32;;;6.80;;
25191;SDS011;13143;50.924;5.320;2024-01-30T02:35:44;11.90;;;7.60;;
25191;SDS011;13143;50.924;5.320;2024-01-30T02:38:10;11.38;;;6.75;;
25191;SDS011;13143;50.924;5.320;2024-01-30T02:40:36;10.10;;;7.00;;
25191;SDS011;13143;50.924;5.320;2024-01-30T02:43:02;10.82;;;7.22;;
25191;SDS011;13143;50.924;5.320;2024-01-30T02:45:28;13.48;;;7.22;;
25191;SDS011;13143;50.924;5.320;2024-01-30T02:47:54;9.95;;;6.50;;
25191;SDS011;13143;50.924;5.320;2024-01-30T02:50:20;11.77;;;7.25;;
25191;SDS011;13143;50.924;5.320;2024-01-30T02:52:46;11.02;;;6.72;;
25191;SDS011;13143;50.924;5.320;2024-01-30T02:55:12;12.32;;;7.28;;
25191;SDS011;13143;50.924;5.320;2024-01-30T02:57:38;14.60;;;7.25;;
25191;SDS011;13143;50.924;5.320;2024-01-30T03:00:04;11.15;;;7.10;;
25191;SDS011;13143;50.924;5.320;2024-01-30T03:02:31;10.35;;;7.10;;
25191;SDS011;13143;50.924;5.320;2024-01-30T03:04:58;11.45;;;6.85;;
25191;SDS011;13143;50.924;5.320;2024-01-30T03:07:24;15.45;;;7.03;;
25191;SDS011;13143;50.924;5.320;2024-01-30T03:09:50;11.68;;;6.40;;
25191;SDS011;13143;50.924;5.320;2024-01-30T03:12:16;12.95;;;6.72;;
25191;SDS011;13143;50.924;5.320;2024-01-30T03:14:41;11.50;;;6.03;;
25191;SDS011;13143;50.924;5.320;2024-01-30T03:17:07;12.18;;;6.50;;
25191;SDS011;13143;50.924;5.320;2024-01-30T03:19:33;10.63;;;6.97;;
25191;SDS011;13143;50.924;5.320;2024-01-30T03:21:59;10.95;;;6.88;;
25191;SDS011;13143;50.924;5.320;2024-01-30T03:24:25;14.50;;;6.75;;
25191;SDS011;13143;50.924;5.320;2024-01-30T03:26:51;16.08;;;6.90;;
25191;SDS011;13143;50.924;5.320;2024-01-30T03:29:16;11.27;;;6.57;;
25191;SDS011;13143;50.924;5.320;2024-01-30T03:31:42;13.75;;;7.57;;
25191;SDS011;13143;50.924;5.320;2024-01-30T03:34:08;13.13;;;7.13;;
25191;SDS011;13143;50.924;5.320;2024-01-30T03:36:34;11.10;;;6.60;;
25191;SDS011;13143;50.924;5.320;2024-01-30T03:39:00;10.55;;;6.25;;
25191;SDS011;13143;50.924;5.320;2024-01-30T03:41:26;9.73;;;6.57;;
25191;SDS011;13143;50.924;5.320;2024-01-30T03:43:52;11.48;;;6.28;;
25191;SDS011;13143;50.924;5.320;2024-01-30T03:46:17;14.30;;;8.13;;
25191;SDS011;13143;50.924;5.320;2024-01-30T03:48:44;10.90;;;6.35;;
25191;SDS011;13143;50.924;5.320;2024-01-30T03:51:11;11.60;;;6.47;;
25191;SDS011;13143;50.924;5.320;2024-01-30T03:53:41;11.95;;;6.70;;
25191;SDS011;13143;50.924;5.320;2024-01-30T03:56:07;10.88;;;6.10;;
25191;SDS011;13143;50.924;5.320;2024-01-30T03:58:33;9.95;;;6.18;;
25191;SDS011;13143;50.924;5.320;2024-01-30T04:00:59;11.10;;;6.20;;
25191;SDS011;13143;50.924;5.320;2024-01-30T04:03:25;12.82;;;6.43;;
25191;SDS011;13143;50.924;5.320;2024-01-30T04:05:51;12.10;;;6.57;;
25191;SDS011;13143;50.924;5.320;2024-01-30T04:08:18;11.82;;;6.43;;
25191;SDS011;13143;50.924;5.320;2024-01-30T04:10:48;12.40;;;6.18;;
25191;SDS011;13143;50.924;5.320;2024-01-30T04:13:14;10.43;;;5.78;;
25191;SDS011;13143;50.924;5.320;2024-01-30T04:15:40;12.63;;;7.10;;
25191;SDS011;13143;50.924;5.320;2024-01-30T04:18:05;15.50;;;6.68;;
25191;SDS011;13143;50.924;5.320;2024-01-30T04:20:31;11.10;;;6.43;;
25191;SDS011;13143;50.924;5.320;2024-01-30T04:22:57;12.98;;;6.43;;
25191;SDS011;13143;50.924;5.320;2024-01-30T04:25:22;12.93;;;6.82;;
25191;SDS011;13143;50.924;5.320;2024-01-30T04:27:48;12.23;;;6.00;;
25191;SDS011;13143;50.924;5.320;2024-01-30T04:30:14;10.10;;;6.20;;
25191;SDS011;13143;50.924;5.320;2024-01-30T04:32:40;15.07;;;6.90;;
25191;SDS011;13143;50.924;5.320;2024-01-30T04:35:06;8.68;;;5.95;;
25191;SDS011;13143;50.924;5.320;2024-01-30T04:37:32;9.48;;;6.05;;
25191;SDS011;13143;50.924;5.320;2024-01-30T04:39:57;11.05;;;6.30;;
25191;SDS011;13143;50.924;5.320;2024-01-30T04:42:23;14.30;;;6.85;;
25191;SDS011;13143;50.924;5.320;2024-01-30T04:44:49;13.35;;;6.97;;
25191;SDS011;13143;50.924;5.320;2024-01-30T04:47:15;11.70;;;6.47;;
25191;SDS011;13143;50.924;5.320;2024-01-30T04:49:41;11.55;;;6.32;;
25191;SDS011;13143;50.924;5.320;2024-01-30T04:52:07;10.60;;;6.13;;
25191;SDS011;13143;50.924;5.320;2024-01-30T04:54:34;11.40;;;6.43;;
25191;SDS011;13143;50.924;5.320;2024-01-30T04:57:01;13.35;;;7.82;;
25191;SDS011;13143;50.924;5.320;2024-01-30T04:59:27;10.02;;;6.55;;
25191;SDS011;13143;50.924;5.320;2024-01-30T05:01:53;13.13;;;6.80;;
25191;SDS011;13143;50.924;5.320;2024-01-30T05:04:19;11.20;;;6.57;;
25191;SDS011;13143;50.924;5.320;2024-01-30T05:06:45;10.88;;;6.30;;
25191;SDS011;13143;50.924;5.320;2024-01-30T05:09:11;16.25;;;6.90;;
25191;SDS011;13143;50.924;5.320;2024-01-30T05:11:37;8.38;;;6.45;;
25191;SDS011;13143;50.924;5.320;2024-01-30T05:14:05;11.80;;;6.78;;
25191;SDS011;13143;50.924;5.320;2024-01-30T05:16:31;11.43;;;6.88;;
25191;SDS011;13143;50.924;5.320;2024-01-30T05:18:57;10.43;;;6.55;;
25191;SDS011;13143;50.924;5.320;2024-01-30T05:21:23;11.40;;;6.90;;
25191;SDS011;13143;50.924;5.320;2024-01-30T05:23:49;11.52;;;6.63;;
25191;SDS011;13143;50.924;5.320;2024-01-30T05:26:15;15.18;;;6.72;;
25191;SDS011;13143;50.924;5.320;2024-01-30T05:28:41;11.82;;;6.47;;
25191;SDS011;13143;50.924;5.320;2024-01-30T05:31:06;13.57;;;6.60;;
25191;SDS011;13143;50.924;5.320;2024-01-30T05:33:33;8.85;;;6.85;;
25191;SDS011;13143;50.924;5.320;2024-01-30T05:35:58;10.10;;;6.32;;
25191;SDS011;13143;50.924;5.320;2024-01-30T05:38:24;11.25;;;6.88;;
25191;SDS011;13143;50.924;5.320;2024-01-30T05:40:50;14.98;;;6.68;;
25191;SDS011;13143;50.924;5.320;2024-01-30T05:43:15;10.95;;;6.85;;
25191;SDS011;13143;50.924;5.320;2024-01-30T05:45:41;13.10;;;6.95;;
25191;SDS011;13143;50.924;5.320;2024-01-30T05:48:07;12.00;;;6.80;;
25191;SDS011;13143;50.924;5.320;2024-01-30T05:50:33;10.55;;;6.25;;
25191;SDS011;13143;50.924;5.320;2024-01-30T05:52:58;10.63;;;6.65;;
25191;SDS011;13143;50.924;5.320;2024-01-30T05:55:24;10.45;;;6.63;;
25191;SDS011;13143;50.924;5.320;2024-01-30T05:57:50;13.82;;;6.63;;
25191;SDS011;13143;50.924;5.320;2024-01-30T06:00:17;11.20;;;7.07;;
25191;SDS011;13143;50.924;5.320;2024-01-30T06:02:43;10.52;;;6.63;;
25191;SDS011;13143;50.924;5.320;2024-01-30T06:05:09;13.80;;;6.65;;
25191;SDS011;13143;50.924;5.320;2024-01-30T06:07:34;9.98;;;6.90;;
25191;SDS011;13143;50.924;5.320;2024-01-30T06:10:00;10.77;;;6.65;;
25191;SDS011;13143;50.924;5.320;2024-01-30T06:12:27;14.25;;;7.03;;
25191;SDS011;13143;50.924;5.320;2024-01-30T06:14:53;12.48;;;7.28;;
25191;SDS011;13143;50.924;5.320;2024-01-30T06:17:21;12.88;;;7.07;;
25191;SDS011;13143;50.924;5.320;2024-01-30T06:19:48;13.00;;;7.32;;
25191;SDS011;13143;50.924;5.320;2024-01-30T06:22:13;11.48;;;6.97;;
25191;SDS011;13143;50.924;5.320;2024-01-30T06:24:40;11.55;;;7.28;;
25191;SDS011;13143;50.924;5.320;2024-01-30T06:27:05;11.93;;;6.68;;
25191;SDS011;13143;50.924;5.320;2024-01-30T06:29:31;14.60;;;7.65;;
25191;SDS011;13143;50.924;5.320;2024-01-30T06:31:57;13.50;;;6.95;;
25191;SDS011;13143;50.924;5.320;2024-01-30T06:34:23;11.63;;;6.80;;
25191;SDS011;13143;50.924;5.320;2024-01-30T06:36:48;11.73;;;6.55;;
25191;SDS011;13143;50.924;5.320;2024-01-30T06:39:14;14.27;;;7.03;;
25191;SDS011;13143;50.924;5.320;2024-01-30T06:41:40;11.57;;;6.80;;
25191;SDS011;13143;50.924;5.320;2024-01-30T06:44:05;12.05;;;7.00;;
25191;SDS011;13143;50.924;5.320;2024-01-30T06:46:33;10.10;;;6.80;;
25191;SDS011;13143;50.924;5.320;2024-01-30T06:49:00;11.88;;;7.07;;
25191;SDS011;13143;50.924;5.320;2024-01-30T06:51:26;13.30;;;7.53;;
25191;SDS011;13143;50.924;5.320;2024-01-30T06:53:52;15.40;;;7.13;;
25191;SDS011;13143;50.924;5.320;2024-01-30T06:56:17;14.63;;;7.60;;
25191;SDS011;13143;50.924;5.320;2024-01-30T06:58:46;15.05;;;6.85;;
25191;SDS011;13143;50.924;5.320;2024-01-30T07:01:13;10.68;;;7.28;;
25191;SDS011;13143;50.924;5.320;2024-01-30T07:03:39;11.75;;;7.72;;
25191;SDS011;13143;50.924;5.320;2024-01-30T07:06:05;11.15;;;7.07;;
25191;SDS011;13143;50.924;5.320;2024-01-30T07:08:30;13.30;;;7.43;;
25191;SDS011;13143;50.924;5.320;2024-01-30T07:10:56;12.68;;;6.80;;
25191;SDS011;13143;50.924;5.320;2024-01-30T07:13:22;15.02;;;6.63;;
25191;SDS011;13143;50.924;5.320;2024-01-30T07:15:48;13.85;;;7.30;;
25191;SDS011;13143;50.924;5.320;2024-01-30T07:18:14;14.48;;;7.20;;
25191;SDS011;13143;50.924;5.320;2024-01-30T07:20:39;12.45;;;7.35;;
25191;SDS011;13143;50.924;5.320;2024-01-30T07:23:14;16.20;;;8.15;;
25191;SDS011;13143;50.924;5.320;2024-01-30T07:25:42;14.52;;;7.40;;
25191;SDS011;13143;50.924;5.320;2024-01-30T07:28:08;10.98;;;6.95;;
25191;SDS011;13143;50.924;5.320;2024-01-30T07:30:35;14.35;;;7.32;;
25191;SDS011;13143;50.924;5.320;2024-01-30T07:33:01;14.45;;;7.57;;
25191;SDS011;13143;50.924;5.320;2024-01-30T07:35:27;13.48;;;7.22;;
25191;SDS011;13143;50.924;5.320;2024-01-30T07:37:53;13.93;;;7.70;;
25191;SDS011;13143;50.924;5.320;2024-01-30T07:40:18;13.43;;;8.05;;
25191;SDS011;13143;50.924;5.320;2024-01-30T07:42:44;18.52;;;7.68;;
25191;SDS011;13143;50.924;5.320;2024-01-30T07:45:10;13.40;;;8.38;;
25191;SDS011;13143;50.924;5.320;2024-01-30T07:47:36;16.05;;;9.77;;
25191;SDS011;13143;50.924;5.320;2024-01-30T07:50:02;15.65;;;9.20;;
25191;SDS011;13143;50.924;5.320;2024-01-30T07:52:27;15.98;;;8.73;;
25191;SDS011;13143;50.924;5.320;2024-01-30T07:54:53;16.00;;;8.38;;
25191;SDS011;13143;50.924;5.320;2024-01-30T07:57:20;17.08;;;8.35;;
25191;SDS011;13143;50.924;5.320;2024-01-30T07:59:46;14.77;;;7.32;;
25191;SDS011;13143;50.924;5.320;2024-01-30T08:02:12;14.68;;;7.38;;
25191;SDS011;13143;50.924;5.320;2024-01-30T08:04:38;12.77;;;7.88;;
25191;SDS011;13143;50.924;5.320;2024-01-30T08:07:04;15.23;;;7.47;;
25191;SDS011;13143;50.924;5.320;2024-01-30T08:09:30;13.45;;;7.13;;
25191;SDS011;13143;50.924;5.320;2024-01-30T08:11:55;14.88;;;7.20;;
25191;SDS011;13143;50.924;5.320;2024-01-30T08:14:21;14.77;;;7.82;;
25191;SDS011;13143;50.924;5.320;2024-01-30T08:16:47;12.40;;;7.80;;
25191;SDS011;13143;50.924;5.320;2024-01-30T08:19:14;16.50;;;7.57;;
25191;SDS011;13143;50.924;5.320;2024-01-30T08:21:40;14.20;;;8.25;;
25191;SDS011;13143;50.924;5.320;2024-01-30T08:24:06;16.52;;;7.80;;
25191;SDS011;13143;50.924;5.320;2024-01-30T08:26:32;10.45;;;6.65;;
25191;SDS011;13143;50.924;5.320;2024-01-30T08:28:58;15.95;;;7.55;;
25191;SDS011;13143;50.924;5.320;2024-01-30T08:31:24;16.33;;;7.53;;
25191;SDS011;13143;50.924;5.320;2024-01-30T08:33:50;13.43;;;7.20;;
25191;SDS011;13143;50.924;5.320;2024-01-30T08:36:16;13.90;;;7.50;;
25191;SDS011;13143;50.924;5.320;2024-01-30T08:38:43;15.27;;;7.88;;
25191;SDS011;13143;50.924;5.320;2024-01-30T08:41:08;13.05;;;7.90;;
25191;SDS011;13143;50.924;5.320;2024-01-30T08:43:34;13.93;;;7.70;;
25191;SDS011;13143;50.924;5.320;2024-01-30T08:46:01;15.52;;;7.90;;
25191;SDS011;13143;50.924;5.320;2024-01-30T08:48:27;15.35;;;7.35;;
25191;SDS011;13143;50.924;5.320;2024-01-30T08:50:53;11.57;;;6.55;;
25191;SDS011;13143;50.924;5.320;2024-01-30T08:53:19;14.95;;;7.80;;
25191;SDS011;13143;50.924;5.320;2024-01-30T08:55:45;12.13;;;7.53;;
25191;SDS011;13143;50.924;5.320;2024-01-30T08:58:10;12.25;;;7.63;;
25191;SDS011;13143;50.924;5.320;2024-01-30T09:00:36;15.88;;;7.43;;
25191;SDS011;13143;50.924;5.320;2024-01-30T09:03:05;18.27;;;8.40;;
25191;SDS011;13143;50.924;5.320;2024-01-30T09:05:31;16.80;;;7.38;;
25191;SDS011;13143;50.924;5.320;2024-01-30T09:07:56;11.50;;;6.70;;
25191;SDS011;13143;50.924;5.320;2024-01-30T09:10:22;16.58;;;7.57;;
25191;SDS011;13143;50.924;5.320;2024-01-30T09:12:48;17.90;;;7.28;;
25191;SDS011;13143;50.924;5.320;2024-01-30T09:15:14;16.95;;;7.80;;
25191;SDS011;13143;50.924;5.320;2024-01-30T09:17:40;14.88;;;7.38;;
25191;SDS011;13143;50.924;5.320;2024-01-30T09:20:06;15.57;;;7.45;;
25191;SDS011;13143;50.924;5.320;2024-01-30T09:22:32;15.25;;;7.30;;
25191;SDS011;13143;50.924;5.320;2024-01-30T09:24:58;18.85;;;7.82;;
25191;SDS011;13143;50.924;5.320;2024-01-30T09:27:23;16.48;;;7.90;;
25191;SDS011;13143;50.924;5.320;2024-01-30T09:29:49;16.58;;;7.72;;
25191;SDS011;13143;50.924;5.320;2024-01-30T09:32:15;13.63;;;7.85;;
25191;SDS011;13143;50.924;5.320;2024-01-30T09:34:42;13.90;;;7.43;;
25191;SDS011;13143;50.924;5.320;2024-01-30T09:37:08;13.05;;;7.50;;
25191;SDS011;13143;50.924;5.320;2024-01-30T09:39:34;18.25;;;8.27;;
25191;SDS011;13143;50.924;5.320;2024-01-30T09:42:11;17.17;;;7.90;;
25191;SDS011;13143;50.924;5.320;2024-01-30T09:44:53;16.30;;;7.40;;
25191;SDS011;13143;50.924;5.320;2024-01-30T09:47:20;19.77;;;7.75;;
25191;SDS011;13143;50.924;5.320;2024-01-30T09:49:46;18.20;;;8.13;;
25191;SDS011;13143;50.924;5.320;2024-01-30T09:52:12;17.45;;;7.55;;
25191;SDS011;13143;50.924;5.320;2024-01-30T09:54:38;12.02;;;7.10;;
25191;SDS011;13143;50.924;5.320;2024-01-30T09:57:05;14.85;;;8.10;;
25191;SDS011;13143;50.924;5.320;2024-01-30T09:59:32;16.27;;;7.93;;
25191;SDS011;13143;50.924;5.320;2024-01-30T10:01:58;15.85;;;7.68;;
25191;SDS011;13143;50.924;5.320;2024-01-30T10:04:23;15.60;;;8.02;;
25191;SDS011;13143;50.924;5.320;2024-01-30T10:06:49;17.42;;;7.88;;
25191;SDS011;13143;50.924;5.320;2024-01-30T10:09:16;14.82;;;9.18;;
25191;SDS011;13143;50.924;5.320;2024-01-30T10:11:42;16.30;;;7.88;;
25191;SDS011;13143;50.924;5.320;2024-01-30T10:14:07;15.20;;;8.43;;
25191;SDS011;13143;50.924;5.320;2024-01-30T10:16:36;14.13;;;7.53;;
25191;SDS011;13143;50.924;5.320;2024-01-30T10:19:02;17.73;;;8.77;;
25191;SDS011;13143;50.924;5.320;2024-01-30T10:21:29;15.95;;;8.18;;
25191;SDS011;13143;50.924;5.320;2024-01-30T10:23:55;22.42;;;9.15;;
25191;SDS011;13143;50.924;5.320;2024-01-30T10:26:21;20.95;;;8.70;;
25191;SDS011;13143;50.924;5.320;2024-01-30T10:28:47;20.02;;;9.75;;
25191;SDS011;13143;50.924;5.320;2024-01-30T10:31:17;16.70;;;7.97;;
25191;SDS011;13143;50.924;5.320;2024-01-30T10:33:46;21.30;;;9.60;;
25191;SDS011;13143;50.924;5.320;2024-01-30T10:36:13;20.88;;;9.05;;
25191;SDS011;13143;50.924;5.320;2024-01-30T10:38:40;17.67;;;9.25;;
25191;SDS011;13143;50.924;5.320;2024-01-30T10:41:08;22.50;;;8.90;;
25191;SDS011;13143;50.924;5.320;2024-01-30T10:43:41;22.98;;;9.40;;
25191;SDS011;13143;50.924;5.320;2024-01-30T10:46:11;24.98;;;10.05;;
25191;SDS011;13143;50.924;5.320;2024-01-30T10:48:53;22.83;;;9.57;;
25191;SDS011;13143;50.924;5.320;2024-01-30T10:51:26;22.75;;;9.10;;
25191;SDS011;13143;50.924;5.320;2024-01-30T10:53:52;17.70;;;8.95;;
25191;SDS011;13143;50.924;5.320;2024-01-30T10:56:22;21.10;;;9.85;;
25191;SDS011;13143;50.924;5.320;2024-01-30T10:58:49;22.27;;;9.23;;
25191;SDS011;13143;50.924;5.320;2024-01-30T11:01:17;20.77;;;10.13;;
25191;SDS011;13143;50.924;5.320;2024-01-30T11:03:53;27.63;;;9.65;;
25191;SDS011;13143;50.924;5.320;2024-01-30T11:06:22;21.10;;;9.95;;
25191;SDS011;13143;50.924;5.320;2024-01-30T11:09:05;23.92;;;10.20;;
25191;SDS011;13143;50.924;5.320;2024-01-30T11:11:51;19.58;;;9.73;;
25191;SDS011;13143;50.924;5.320;2024-01-30T11:14:25;19.90;;;10.10;;
25191;SDS011;13143;50.924;5.320;2024-01-30T11:16:51;22.02;;;9.70;;
25191;SDS011;13143;50.924;5.320;2024-01-30T11:19:24;22.67;;;9.02;;
25191;SDS011;13143;50.924;5.320;2024-01-30T11:21:53;24.13;;;11.15;;
25191;SDS011;13143;50.924;5.320;2024-01-30T11:24:20;20.95;;;10.30;;
25191;SDS011;13143;50.924;5.320;2024-01-30T11:26:58;24.52;;;10.20;;
25191;SDS011;13143;50.924;5.320;2024-01-30T11:29:27;23.38;;;10.45;;
25191;SDS011;13143;50.924;5.320;2024-01-30T11:31:57;22.05;;;10.80;;
25191;SDS011;13143;50.924;5.320;2024-01-30T11:34:24;21.38;;;9.80;;
25191;SDS011;13143;50.924;5.320;2024-01-30T11:36:55;27.83;;;10.55;;
25191;SDS011;13143;50.924;5.320;2024-01-30T11:39:25;26.02;;;11.77;;
25191;SDS011;13143;50.924;5.320;2024-01-30T11:41:54;20.95;;;10.50;;
25191;SDS011;13143;50.924;5.320;2024-01-30T11:44:20;29.50;;;12.15;;
25191;SDS011;13143;50.924;5.320;2024-01-30T11:46:53;27.75;;;12.18;;
25191;SDS011;13143;50.924;5.320;2024-01-30T11:49:18;25.05;;;11.20;;
25191;SDS011;13143;50.924;5.320;2024-01-30T11:51:47;20.30;;;11.07;;
25191;SDS011;13143;50.924;5.320;2024-01-30T11:54:17;22.45;;;10.70;;
25191;SDS011;13143;50.924;5.320;2024-01-30T11:56:43;21.52;;;11.32;;
25191;SDS011;13143;50.924;5.320;2024-01-30T11:59:09;28.85;;;11.43;;
25191;SDS011;13143;50.924;5.320;2024-01-30T12:01:35;18.45;;;10.63;;
25191;SDS011;13143;50.924;5.320;2024-01-30T12:04:01;23.90;;;11.07;;
25191;SDS011;13143;50.924;5.320;2024-01-30T12:06:28;25.60;;;11.57;;
25191;SDS011;13143;50.924;5.320;2024-01-30T12:09:00;28.88;;;12.57;;
25191;SDS011;13143;50.924;5.320;2024-01-30T12:11:30;19.38;;;11.45;;
25191;SDS011;13143;50.924;5.320;2024-01-30T12:13:56;23.85;;;12.30;;
25191;SDS011;13143;50.924;5.320;2024-01-30T12:16:22;23.27;;;11.93;;
25191;SDS011;13143;50.924;5.320;2024-01-30T12:18:48;16.65;;;11.02;;
25191;SDS011;13143;50.924;5.320;2024-01-30T12:21:17;22.17;;;10.77;;
25191;SDS011;13143;50.924;5.320;2024-01-30T12:23:45;27.58;;;12.25;;
25191;SDS011;13143;50.924;5.320;2024-01-30T12:26:11;21.88;;;11.82;;
25191;SDS011;13143;50.924;5.320;2024-01-30T12:28:47;21.05;;;11.60;;
25191;SDS011;13143;50.924;5.320;2024-01-30T12:31:13;26.95;;;12.18;;
25191;SDS011;13143;50.924;5.320;2024-01-30T12:33:39;22.00;;;11.45;;
25191;SDS011;13143;50.924;5.320;2024-01-30T12:36:05;28.02;;;13.63;;
25191;SDS011;13143;50.924;5.320;2024-01-30T12:38:31;23.30;;;11.32;;
25191;SDS011;13143;50.924;5.320;2024-01-30T12:40:57;24.95;;;10.93;;
25191;SDS011;13143;50.924;5.320;2024-01-30T12:43:23;20.27;;;10.55;;
25191;SDS011;13143;50.924;5.320;2024-01-30T12:45:50;22.35;;;10.10;;
25191;SDS011;13143;50.924;5.320;2024-01-30T12:48:17;21.85;;;10.45;;
25191;SDS011;13143;50.924;5.320;2024-01-30T12:50:43;23.98;;;8.57;;
25191;SDS011;13143;50.924;5.320;2024-01-30T12:53:09;15.40;;;7.60;;
25191;SDS011;13143;50.924;5.320;2024-01-30T12:55:35;18.33;;;6.05;;
25191;SDS011;13143;50.924;5.320;2024-01-30T12:58:00;12.10;;;4.97;;
25191;SDS011;13143;50.924;5.320;2024-01-30T13:00:26;11.40;;;4.60;;
25191;SDS011;13143;50.924;5.320;2024-01-30T13:02:52;9.15;;;4.90;;
25191;SDS011;13143;50.924;5.320;2024-01-30T13:05:18;10.65;;;3.97;;
25191;SDS011;13143;50.924;5.320;2024-01-30T13:07:44;9.02;;;4.03;;
25191;SDS011;13143;50.924;5.320;2024-01-30T13:10:10;13.50;;;3.78;;
25191;SDS011;13143;50.924;5.320;2024-01-30T13:12:35;9.68;;;3.92;;
25191;SDS011;13143;50.924;5.320;2024-01-30T13:15:03;7.28;;;3.38;;
25191;SDS011;13143;50.924;5.320;2024-01-30T13:17:30;7.80;;;3.25;;
25191;SDS011;13143;50.924;5.320;2024-01-30T13:19:56;10.07;;;3.00;;
25191;SDS011;13143;50.924;5.320;2024-01-30T13:22:23;10.95;;;2.78;;
25191;SDS011;13143;50.924;5.320;2024-01-30T13:24:49;7.00;;;2.50;;
25191;SDS011;13143;50.924;5.320;2024-01-30T13:27:15;8.63;;;2.92;;
25191;SDS011;13143;50.924;5.320;2024-01-30T13:29:40;8.00;;;2.33;;
25191;SDS011;13143;50.924;5.320;2024-01-30T13:32:06;10.25;;;2.15;;
25191;SDS011;13143;50.924;5.320;2024-01-30T13:34:32;4.60;;;2.08;;
25191;SDS011;13143;50.924;5.320;2024-01-30T13:36:58;6.93;;;1.95;;
25191;SDS011;13143;50.924;5.320;2024-01-30T13:39:23;6.00;;;1.95;;
25191;SDS011;13143;50.924;5.320;2024-01-30T13:41:49;4.68;;;2.00;;
25191;SDS011;13143;50.924;5.320;2024-01-30T13:44:15;5.85;;;2.20;;
25191;SDS011;13143;50.924;5.320;2024-01-30T13:46:45;8.55;;;2.28;;
25191;SDS011;13143;50.924;5.320;2024-01-30T13:49:11;4.53;;;1.38;;
25191;SDS011;13143;50.924;5.320;2024-01-30T13:51:37;7.28;;;1.80;;
25191;SDS011;13143;50.924;5.320;2024-01-30T13:54:03;5.38;;;1.60;;
25191;SDS011;13143;50.924;5.320;2024-01-30T13:56:28;7.78;;;2.63;;
25191;SDS011;13143;50.924;5.320;2024-01-30T13:58:55;4.40;;;1.33;;
25191;SDS011;13143;50.924;5.320;2024-01-30T14:01:21;5.93;;;1.20;;
25191;SDS011;13143;50.924;5.320;2024-01-30T14:03:47;6.93;;;1.13;;
25191;SDS011;13143;50.924;5.320;2024-01-30T14:06:13;3.13;;;1.30;;
25191;SDS011;13143;50.924;5.320;2024-01-30T14:08:39;8.02;;;0.85;;
25191;SDS011;13143;50.924;5.320;2024-01-30T14:11:05;2.22;;;0.60;;
25191;SDS011;13143;50.924;5.320;2024-01-30T14:13:30;2.00;;;0.80;;
25191;SDS011;13143;50.924;5.320;2024-01-30T14:15:57;5.07;;;1.08;;
25191;SDS011;13143;50.924;5.320;2024-01-30T14:18:23;2.30;;;0.75;;
25191;SDS011;13143;50.924;5.320;2024-01-30T14:20:50;1.42;;;0.70;;
25191;SDS011;13143;50.924;5.320;2024-01-30T14:23:17;5.55;;;1.00;;
25191;SDS011;13143;50.924;5.320;2024-01-30T14:25:43;1.30;;;0.70;;
25191;SDS011;13143;50.924;5.320;2024-01-30T14:28:09;2.40;;;1.00;;
25191;SDS011;13143;50.924;5.320;2024-01-30T14:30:35;3.88;;;1.20;;
25191;SDS011;13143;50.924;5.320;2024-01-30T14:33:01;3.00;;;1.00;;